createdAt,value
2022-12-11T00:00:15.571Z,14
2022-12-11T00:01:15.584Z,15
2022-12-11T00:03:16.329Z,15
2022-12-11T00:04:15.557Z,15
2022-12-11T00:05:15.568Z,14
2022-12-11T00:06:15.640Z,15
2022-12-11T00:07:15.579Z,14
2022-12-11T00:08:15.627Z,15
2022-12-11T00:09:15.584Z,15
2022-12-11T00:10:15.572Z,15
2022-12-11T00:11:15.579Z,15
2022-12-11T00:12:15.568Z,15
2022-12-11T00:13:15.582Z,15
2022-12-11T00:14:15.555Z,16
2022-12-11T00:15:15.558Z,15
2022-12-11T00:16:15.638Z,16
2022-12-11T00:17:15.558Z,16
2022-12-11T00:18:15.585Z,16
2022-12-11T00:19:15.578Z,14
2022-12-11T00:20:15.559Z,16
2022-12-11T00:21:15.559Z,14
2022-12-11T00:22:15.566Z,14
2022-12-11T00:24:15.578Z,16
2022-12-11T00:25:15.575Z,16
2022-12-11T00:26:15.575Z,14
2022-12-11T00:27:15.561Z,16
2022-12-11T00:28:15.596Z,17
2022-12-11T00:29:15.576Z,16
2022-12-11T00:30:15.573Z,16
2022-12-11T00:31:15.573Z,15
2022-12-11T00:32:15.595Z,17
2022-12-11T00:33:15.621Z,16
2022-12-11T00:34:15.560Z,14
2022-12-11T00:35:15.562Z,17
2022-12-11T00:36:15.565Z,15
2022-12-11T00:37:15.629Z,16
2022-12-11T00:38:15.564Z,15
2022-12-11T00:40:15.578Z,16
2022-12-11T00:41:15.586Z,16
2022-12-11T00:42:15.578Z,15
2022-12-11T00:43:15.584Z,16
2022-12-11T00:44:15.573Z,15
2022-12-11T00:45:15.592Z,14
2022-12-11T00:46:15.611Z,15
2022-12-11T00:47:15.579Z,15
2022-12-11T00:48:15.585Z,16
2022-12-11T00:49:15.579Z,16
2022-12-11T00:50:15.616Z,16
2022-12-11T00:51:15.589Z,16
2022-12-11T00:52:15.592Z,15
2022-12-11T00:53:15.573Z,16
2022-12-11T00:54:15.564Z,14
2022-12-11T00:56:15.585Z,18
2022-12-11T00:57:15.567Z,17
2022-12-11T00:58:15.563Z,17
2022-12-11T00:59:15.607Z,17
2022-12-11T01:00:15.583Z,15
2022-12-11T01:01:15.645Z,15
2022-12-11T01:02:15.574Z,16
2022-12-11T01:03:15.646Z,16
2022-12-11T01:04:15.582Z,16
2022-12-11T01:05:15.593Z,15
2022-12-11T01:06:15.569Z,15
2022-12-11T01:07:15.577Z,15
2022-12-11T01:08:15.647Z,15
2022-12-11T01:09:15.575Z,16
2022-12-11T01:10:15.573Z,14
2022-12-11T01:11:15.596Z,14
2022-12-11T01:12:15.638Z,15
2022-12-11T01:13:15.577Z,17
2022-12-11T01:14:15.581Z,15
2022-12-11T01:15:15.605Z,16
2022-12-11T01:16:15.611Z,16
2022-12-11T01:17:15.575Z,16
2022-12-11T01:18:15.574Z,15
2022-12-11T01:19:15.564Z,15
2022-12-11T01:20:15.608Z,13
2022-12-11T01:21:15.588Z,13
2022-12-11T01:22:15.566Z,14
2022-12-11T01:23:15.569Z,14
2022-12-11T01:24:15.581Z,13
2022-12-11T01:25:15.575Z,13
2022-12-11T01:26:15.567Z,14
2022-12-11T01:27:15.585Z,12
2022-12-11T01:28:15.586Z,12
2022-12-11T01:29:15.595Z,12
2022-12-11T01:30:15.582Z,12
2022-12-11T01:31:15.605Z,12
2022-12-11T01:32:15.584Z,12
2022-12-11T01:33:15.593Z,14
2022-12-11T01:34:15.585Z,14
2022-12-11T01:35:15.586Z,13
2022-12-11T01:36:15.603Z,14
2022-12-11T01:37:15.569Z,14
2022-12-11T01:38:15.573Z,14
2022-12-11T01:39:15.618Z,13
2022-12-11T01:40:15.602Z,13
2022-12-11T01:41:15.569Z,13
2022-12-11T01:42:15.569Z,13
2022-12-11T01:43:15.574Z,14
2022-12-11T01:44:15.655Z,14
2022-12-11T01:45:15.579Z,13
2022-12-11T01:46:15.639Z,13
2022-12-11T01:47:15.588Z,13
2022-12-11T01:48:15.581Z,14
2022-12-11T01:49:15.647Z,14
2022-12-11T01:50:15.588Z,14
2022-12-11T01:51:16.348Z,14
2022-12-11T01:52:15.590Z,14
2022-12-11T01:53:15.584Z,14
2022-12-11T01:54:15.596Z,13
2022-12-11T01:55:15.598Z,15
2022-12-11T01:56:15.588Z,13
2022-12-11T01:57:15.574Z,14
2022-12-11T01:58:15.588Z,13
2022-12-11T01:59:15.586Z,13
2022-12-11T02:00:15.582Z,14
2022-12-11T02:01:15.710Z,13
2022-12-11T02:03:15.604Z,13
2022-12-11T02:04:15.586Z,13
2022-12-11T02:05:15.582Z,14
2022-12-11T02:06:15.570Z,14
2022-12-11T02:07:15.596Z,14
2022-12-11T02:08:15.624Z,13
2022-12-11T02:09:15.576Z,16
2022-12-11T02:10:15.611Z,14
2022-12-11T02:11:15.601Z,14
2022-12-11T02:12:15.586Z,12
2022-12-11T02:13:15.583Z,16
2022-12-11T02:14:15.595Z,14
2022-12-11T02:15:15.593Z,14
2022-12-11T02:16:15.635Z,15
2022-12-11T02:17:15.596Z,14
2022-12-11T02:18:15.604Z,13
2022-12-11T02:19:15.574Z,14
2022-12-11T02:20:15.578Z,14
2022-12-11T02:21:15.588Z,14
2022-12-11T02:22:15.592Z,13
2022-12-11T02:23:15.575Z,14
2022-12-11T02:24:15.579Z,13
2022-12-11T02:25:15.575Z,13
2022-12-11T02:26:15.596Z,14
2022-12-11T02:28:15.580Z,14
2022-12-11T02:29:15.589Z,13
2022-12-11T02:30:15.574Z,13
2022-12-11T02:31:15.669Z,13
2022-12-11T02:32:15.617Z,13
2022-12-11T02:33:15.635Z,13
2022-12-11T02:34:15.577Z,13
2022-12-11T02:35:15.583Z,13
2022-12-11T02:36:15.610Z,13
2022-12-11T02:37:15.590Z,13
2022-12-11T02:38:15.615Z,12
2022-12-11T02:39:15.601Z,12
2022-12-11T02:40:15.583Z,13
2022-12-11T02:41:15.607Z,12
2022-12-11T02:42:15.587Z,13
2022-12-11T02:43:15.581Z,13
2022-12-11T02:44:15.590Z,13
2022-12-11T02:45:15.595Z,14
2022-12-11T02:46:15.655Z,13
2022-12-11T02:47:15.603Z,13
2022-12-11T02:48:15.593Z,14
2022-12-11T02:49:15.596Z,14
2022-12-11T02:50:15.651Z,13
2022-12-11T02:51:15.593Z,13
2022-12-11T02:52:15.607Z,13
2022-12-11T02:53:15.597Z,13
2022-12-11T02:54:15.608Z,13
2022-12-11T02:55:15.609Z,13
2022-12-11T02:56:15.615Z,13
2022-12-11T02:57:15.595Z,12
2022-12-11T02:58:15.600Z,13
2022-12-11T02:59:15.597Z,14
2022-12-11T03:00:15.597Z,13
2022-12-11T03:01:15.640Z,13
2022-12-11T03:02:15.689Z,12
2022-12-11T03:03:15.618Z,14
2022-12-11T03:04:15.587Z,13
2022-12-11T03:05:15.591Z,14
2022-12-11T03:06:15.586Z,12
2022-12-11T03:07:15.593Z,13
2022-12-11T03:08:15.633Z,12
2022-12-11T03:09:15.604Z,13
2022-12-11T03:10:15.616Z,14
2022-12-11T03:11:15.595Z,12
2022-12-11T03:12:15.618Z,14
2022-12-11T03:13:15.603Z,13
2022-12-11T03:14:15.615Z,13
2022-12-11T03:15:15.608Z,14
2022-12-11T03:16:15.679Z,15
2022-12-11T03:17:15.609Z,14
2022-12-11T03:18:15.590Z,14
2022-12-11T03:19:15.617Z,14
2022-12-11T03:20:15.595Z,15
2022-12-11T03:21:15.600Z,14
2022-12-11T03:22:15.613Z,15
2022-12-11T03:23:15.605Z,14
2022-12-11T03:24:15.617Z,14
2022-12-11T03:25:15.611Z,13
2022-12-11T03:26:15.593Z,14
2022-12-11T03:27:15.600Z,15
2022-12-11T03:28:15.592Z,15
2022-12-11T03:29:15.594Z,14
2022-12-11T03:30:15.601Z,15
2022-12-11T03:31:15.613Z,15
2022-12-11T03:32:15.595Z,15
2022-12-11T03:33:15.600Z,14
2022-12-11T03:34:15.592Z,14
2022-12-11T03:35:15.941Z,15
2022-12-11T03:36:15.604Z,14
2022-12-11T03:37:15.594Z,14
2022-12-11T03:38:15.585Z,14
2022-12-11T03:39:15.642Z,15
2022-12-11T03:40:15.602Z,15
2022-12-11T03:41:15.600Z,14
2022-12-11T03:42:15.599Z,13
2022-12-11T03:43:15.616Z,14
2022-12-11T03:44:15.599Z,14
2022-12-11T03:45:15.606Z,14
2022-12-11T03:46:15.680Z,14
2022-12-11T03:47:15.609Z,14
2022-12-11T03:48:15.615Z,14
2022-12-11T03:49:15.597Z,15
2022-12-11T03:50:15.617Z,14
2022-12-11T03:51:15.595Z,15
2022-12-11T03:52:15.583Z,15
2022-12-11T03:53:15.626Z,15
2022-12-11T03:54:15.607Z,15
2022-12-11T03:55:15.598Z,15
2022-12-11T03:57:15.603Z,15
2022-12-11T03:58:15.610Z,15
2022-12-11T03:59:15.616Z,15
2022-12-11T04:00:15.597Z,14
2022-12-11T04:01:15.656Z,14
2022-12-11T04:02:15.596Z,15
2022-12-11T04:03:15.612Z,13
2022-12-11T04:04:15.652Z,15
2022-12-11T04:05:15.609Z,15
2022-12-11T04:06:15.588Z,15
2022-12-11T04:07:15.617Z,16
2022-12-11T04:08:15.652Z,15
2022-12-11T04:09:15.589Z,15
2022-12-11T04:10:15.597Z,14
2022-12-11T04:11:15.608Z,15
2022-12-11T04:12:15.586Z,14
2022-12-11T04:13:15.629Z,16
2022-12-11T04:14:15.638Z,15
2022-12-11T04:15:15.616Z,15
2022-12-11T04:16:15.616Z,14
2022-12-11T04:17:15.612Z,14
2022-12-11T04:18:15.608Z,15
2022-12-11T04:19:15.604Z,15
2022-12-11T04:20:15.598Z,15
2022-12-11T04:21:15.594Z,15
2022-12-11T04:22:15.607Z,14
2022-12-11T04:23:15.595Z,16
2022-12-11T04:24:15.610Z,15
2022-12-11T04:25:15.613Z,15
2022-12-11T04:26:15.613Z,16
2022-12-11T04:27:15.589Z,16
2022-12-11T04:28:15.622Z,15
2022-12-11T04:29:15.627Z,14
2022-12-11T04:30:15.663Z,16
2022-12-11T04:31:15.815Z,15
2022-12-11T04:32:15.614Z,14
2022-12-11T04:33:15.648Z,15
2022-12-11T04:34:15.612Z,15
2022-12-11T04:35:15.613Z,16
2022-12-11T04:36:15.615Z,14
2022-12-11T04:37:15.597Z,15
2022-12-11T04:38:15.606Z,16
2022-12-11T04:39:15.687Z,16
2022-12-11T04:40:15.617Z,17
2022-12-11T04:41:15.612Z,14
2022-12-11T04:42:15.665Z,15
2022-12-11T04:43:15.605Z,16
2022-12-11T04:44:15.605Z,15
2022-12-11T04:45:15.622Z,17
2022-12-11T04:46:15.685Z,16
2022-12-11T04:47:15.633Z,17
2022-12-11T04:48:15.613Z,13
2022-12-11T04:49:15.614Z,15
2022-12-11T04:50:15.622Z,15
2022-12-11T04:51:15.602Z,16
2022-12-11T04:52:15.613Z,16
2022-12-11T04:53:15.596Z,16
2022-12-11T04:54:16.370Z,16
2022-12-11T04:55:15.608Z,15
2022-12-11T04:56:15.611Z,15
2022-12-11T04:57:15.637Z,16
2022-12-11T04:58:15.612Z,16
2022-12-11T04:59:15.608Z,14
2022-12-11T05:00:15.619Z,16
2022-12-11T05:01:15.688Z,16
2022-12-11T05:02:15.607Z,16
2022-12-11T05:03:15.607Z,16
2022-12-11T05:04:15.669Z,15
2022-12-11T05:05:15.622Z,16
2022-12-11T05:06:15.625Z,15
2022-12-11T05:07:15.622Z,16
2022-12-11T05:08:15.676Z,17
2022-12-11T05:09:15.661Z,15
2022-12-11T05:10:15.609Z,17
2022-12-11T05:11:15.614Z,16
2022-12-11T05:12:15.631Z,16
2022-12-11T05:13:15.620Z,16
2022-12-11T05:14:15.628Z,17
2022-12-11T05:15:15.624Z,16
2022-12-11T05:16:15.715Z,16
2022-12-11T05:17:15.605Z,16
2022-12-11T05:18:15.600Z,15
2022-12-11T05:19:15.619Z,16
2022-12-11T05:20:15.608Z,16
2022-12-11T05:21:15.639Z,17
2022-12-11T05:22:15.652Z,18
2022-12-11T05:23:15.660Z,15
2022-12-11T05:24:15.619Z,16
2022-12-11T05:25:15.614Z,15
2022-12-11T05:26:15.669Z,17
2022-12-11T05:27:15.613Z,17
2022-12-11T05:28:15.602Z,16
2022-12-11T05:29:15.638Z,16
2022-12-11T05:30:15.625Z,16
2022-12-11T05:31:15.771Z,16
2022-12-11T05:32:15.625Z,16
2022-12-11T05:33:15.608Z,16
2022-12-11T05:34:15.605Z,15
2022-12-11T05:35:15.620Z,17
2022-12-11T05:36:15.659Z,16
2022-12-11T05:37:15.628Z,16
2022-12-11T05:38:15.633Z,16
2022-12-11T05:39:15.626Z,16
2022-12-11T05:40:15.624Z,17
2022-12-11T05:41:15.613Z,16
2022-12-11T05:42:15.621Z,16
2022-12-11T05:43:15.617Z,16
2022-12-11T05:44:15.612Z,16
2022-12-11T05:45:15.629Z,16
2022-12-11T05:46:15.726Z,15
2022-12-11T05:47:15.640Z,16
2022-12-11T05:48:15.662Z,15
2022-12-11T05:49:19.634Z,17
2022-12-11T05:50:15.622Z,16
2022-12-11T05:51:15.620Z,15
2022-12-11T05:52:15.610Z,17
2022-12-11T05:53:15.630Z,16
2022-12-11T05:54:15.624Z,15
2022-12-11T05:55:15.621Z,16
2022-12-11T05:56:15.640Z,17
2022-12-11T05:57:15.623Z,15
2022-12-11T05:58:15.628Z,16
2022-12-11T05:59:15.627Z,17
2022-12-11T06:00:15.646Z,16
2022-12-11T06:01:15.630Z,15
2022-12-11T06:02:15.807Z,16
2022-12-11T06:03:15.707Z,17
2022-12-11T06:04:15.617Z,17
2022-12-11T06:05:15.631Z,16
2022-12-11T06:06:15.620Z,16
2022-12-11T06:07:15.625Z,17
2022-12-11T06:08:15.650Z,17
2022-12-11T06:09:15.629Z,17
2022-12-11T06:10:15.664Z,17
2022-12-11T06:11:19.596Z,17
2022-12-11T06:12:15.619Z,17
2022-12-11T06:13:15.613Z,19
2022-12-11T06:14:15.632Z,17
2022-12-11T06:15:15.629Z,17
2022-12-11T06:16:15.644Z,17
2022-12-11T06:17:15.623Z,17
2022-12-11T06:18:15.651Z,17
2022-12-11T06:19:15.620Z,16
2022-12-11T06:20:15.617Z,17
2022-12-11T06:21:15.644Z,17
2022-12-11T06:22:15.615Z,18
2022-12-11T06:23:15.629Z,17
2022-12-11T06:24:15.617Z,17
2022-12-11T06:25:15.621Z,16
2022-12-11T06:26:15.638Z,17
2022-12-11T06:27:15.619Z,16
2022-12-11T06:28:15.652Z,16
2022-12-11T06:30:15.670Z,18
2022-12-11T06:31:15.821Z,18
2022-12-11T06:32:15.650Z,18
2022-12-11T06:33:15.620Z,18
2022-12-11T06:34:15.617Z,18
2022-12-11T06:36:15.637Z,16
2022-12-11T06:37:15.629Z,17
2022-12-11T06:38:15.642Z,17
2022-12-11T06:39:15.640Z,17
2022-12-11T06:40:15.641Z,17
2022-12-11T06:41:15.638Z,17
2022-12-11T06:42:15.658Z,17
2022-12-11T06:43:15.619Z,18
2022-12-11T06:44:15.657Z,18
2022-12-11T06:45:15.628Z,17
2022-12-11T06:46:15.771Z,17
2022-12-11T06:47:15.633Z,18
2022-12-11T06:48:15.634Z,18
2022-12-11T06:49:15.662Z,17
2022-12-11T06:50:15.642Z,17
2022-12-11T06:51:15.625Z,16
2022-12-11T06:52:18.541Z,17
2022-12-11T06:53:15.625Z,18
2022-12-11T06:54:15.666Z,18
2022-12-11T06:55:15.653Z,17
2022-12-11T06:57:15.642Z,16
2022-12-11T06:58:15.647Z,17
2022-12-11T06:59:15.692Z,18
2022-12-11T07:00:15.622Z,16
2022-12-11T07:01:15.690Z,17
2022-12-11T07:02:15.686Z,16
2022-12-11T07:03:15.632Z,18
2022-12-11T07:04:15.692Z,17
2022-12-11T07:05:15.638Z,16
2022-12-11T07:06:15.634Z,16
2022-12-11T07:07:15.645Z,16
2022-12-11T07:08:15.748Z,18
2022-12-11T07:09:15.621Z,16
2022-12-11T07:10:15.635Z,17
2022-12-11T07:11:15.652Z,17
2022-12-11T07:12:15.648Z,16
2022-12-11T07:13:15.635Z,16
2022-12-11T07:14:15.644Z,16
2022-12-11T07:15:15.635Z,16
2022-12-11T07:16:15.717Z,18
2022-12-11T07:17:15.622Z,17
2022-12-11T07:18:15.643Z,11
2022-12-11T07:19:15.658Z,17
2022-12-11T07:20:15.661Z,17
2022-12-11T07:21:15.643Z,18
2022-12-11T07:22:15.643Z,17
2022-12-11T07:23:15.645Z,17
2022-12-11T07:24:15.638Z,17
2022-12-11T07:25:15.627Z,17
2022-12-11T07:26:15.626Z,18
2022-12-11T07:27:15.630Z,16
2022-12-11T07:28:16.937Z,15
2022-12-11T07:29:15.644Z,16
2022-12-11T07:30:15.628Z,16
2022-12-11T07:31:15.691Z,15
2022-12-11T07:32:15.763Z,16
2022-12-11T07:33:15.624Z,16
2022-12-11T07:34:15.641Z,16
2022-12-11T07:35:15.646Z,16
2022-12-11T07:36:15.638Z,17
2022-12-11T07:37:15.649Z,16
2022-12-11T07:38:15.652Z,16
2022-12-11T07:39:15.651Z,16
2022-12-11T07:40:15.644Z,17
2022-12-11T07:41:15.622Z,18
2022-12-11T07:42:15.623Z,16
2022-12-11T07:43:15.647Z,16
2022-12-11T07:44:15.626Z,16
2022-12-11T07:45:15.630Z,17
2022-12-11T07:46:15.728Z,18
2022-12-11T07:47:15.681Z,16
2022-12-11T07:48:15.701Z,17
2022-12-11T07:49:15.649Z,16
2022-12-11T07:50:15.633Z,16
2022-12-11T07:51:15.658Z,16
2022-12-11T07:52:15.637Z,16
2022-12-11T07:53:15.648Z,16
2022-12-11T07:54:15.662Z,17
2022-12-11T07:55:15.650Z,16
2022-12-11T07:56:15.673Z,16
2022-12-11T07:57:15.637Z,16
2022-12-11T07:58:15.649Z,17
2022-12-11T07:59:15.639Z,17
2022-12-11T08:00:15.658Z,16
2022-12-11T08:01:15.738Z,16
2022-12-11T08:02:15.717Z,16
2022-12-11T08:03:15.639Z,15
2022-12-11T08:04:15.673Z,16
2022-12-11T08:05:15.682Z,17
2022-12-11T08:06:15.657Z,16
2022-12-11T08:07:15.645Z,17
2022-12-11T08:08:15.714Z,16
2022-12-11T08:09:21.095Z,16
2022-12-11T08:10:15.692Z,18
2022-12-11T08:11:15.647Z,18
2022-12-11T08:12:15.653Z,17
2022-12-11T08:13:15.665Z,17
2022-12-11T08:14:15.653Z,15
2022-12-11T08:15:15.641Z,15
2022-12-11T08:16:15.737Z,17
2022-12-11T08:17:15.650Z,16
2022-12-11T08:18:15.634Z,17
2022-12-11T08:19:15.645Z,16
2022-12-11T08:20:15.647Z,17
2022-12-11T08:21:15.633Z,18
2022-12-11T08:22:15.667Z,17
2022-12-11T08:23:16.369Z,15
2022-12-11T08:24:15.658Z,15
2022-12-11T08:25:15.650Z,17
2022-12-11T08:26:15.648Z,17
2022-12-11T08:27:15.650Z,15
2022-12-11T08:28:15.650Z,17
2022-12-11T08:29:15.657Z,15
2022-12-11T08:30:15.644Z,15
2022-12-11T08:31:15.732Z,16
2022-12-11T08:32:15.700Z,15
2022-12-11T08:33:15.657Z,14
2022-12-11T08:34:15.641Z,14
2022-12-11T08:35:15.641Z,15
2022-12-11T08:36:15.646Z,14
2022-12-11T08:37:15.654Z,16
2022-12-11T08:38:16.400Z,15
2022-12-11T08:39:15.639Z,15
2022-12-11T08:40:15.647Z,14
2022-12-11T08:41:15.653Z,16
2022-12-11T08:42:15.664Z,15
2022-12-11T08:43:15.647Z,15
2022-12-11T08:44:16.935Z,15
2022-12-11T08:45:15.636Z,16
2022-12-11T08:46:15.753Z,8
2022-12-11T08:47:15.657Z,7
2022-12-11T08:48:15.664Z,8
2022-12-11T08:49:15.668Z,10
2022-12-11T08:50:15.651Z,9
2022-12-11T08:51:15.658Z,9
2022-12-11T08:52:15.656Z,9
2022-12-11T08:53:15.696Z,9
2022-12-11T08:54:15.696Z,9
2022-12-11T08:55:15.650Z,13
2022-12-11T08:56:15.652Z,13
2022-12-11T08:57:15.661Z,13
2022-12-11T08:58:15.657Z,14
2022-12-11T08:59:15.734Z,14
2022-12-11T09:00:15.655Z,14
2022-12-11T09:01:15.721Z,13
2022-12-11T09:02:15.776Z,14
2022-12-11T09:03:15.663Z,14
2022-12-11T09:04:15.645Z,14
2022-12-11T09:06:15.649Z,14
2022-12-11T09:08:15.796Z,13
2022-12-11T09:09:15.666Z,14
2022-12-11T09:10:15.674Z,15
2022-12-11T09:11:15.692Z,14
2022-12-11T09:12:15.650Z,13
2022-12-11T09:13:15.657Z,14
2022-12-11T09:14:15.642Z,15
2022-12-11T09:15:15.662Z,15
2022-12-11T09:16:15.735Z,14
2022-12-11T09:17:15.649Z,15
2022-12-11T09:18:15.681Z,13
2022-12-11T09:19:15.669Z,14
2022-12-11T09:20:15.657Z,15
2022-12-11T09:21:15.655Z,14
2022-12-11T09:22:15.670Z,15
2022-12-11T09:23:15.669Z,14
2022-12-11T09:24:15.678Z,13
2022-12-11T09:25:15.675Z,15
2022-12-11T09:26:15.670Z,14
2022-12-11T09:27:15.667Z,14
2022-12-11T09:28:15.685Z,14
2022-12-11T09:29:15.677Z,14
2022-12-11T09:30:15.686Z,14
2022-12-11T09:31:15.737Z,15
2022-12-11T09:32:15.655Z,15
2022-12-11T09:33:15.662Z,13
2022-12-11T09:34:15.646Z,15
2022-12-11T09:35:15.652Z,14
2022-12-11T09:36:15.664Z,20
2022-12-11T09:37:15.660Z,26
2022-12-11T09:38:15.678Z,26
2022-12-11T09:39:15.659Z,25
2022-12-11T09:40:15.659Z,18
2022-12-11T09:42:15.676Z,15
2022-12-11T09:43:15.672Z,15
2022-12-11T09:44:15.667Z,15
2022-12-11T09:45:15.682Z,14
2022-12-11T09:46:15.717Z,16
2022-12-11T09:47:15.669Z,13
2022-12-11T09:48:15.662Z,14
2022-12-11T09:49:15.665Z,14
2022-12-11T09:50:15.674Z,14
2022-12-11T09:51:15.691Z,14
2022-12-11T09:52:15.646Z,14
2022-12-11T09:53:15.656Z,14
2022-12-11T09:54:15.676Z,14
2022-12-11T09:55:15.742Z,14
2022-12-11T09:56:15.666Z,14
2022-12-11T09:57:15.675Z,14
2022-12-11T09:58:15.659Z,15
2022-12-11T09:59:15.660Z,15
2022-12-11T10:00:15.669Z,15
2022-12-11T10:01:15.707Z,13
2022-12-11T10:03:15.677Z,13
2022-12-11T10:04:15.671Z,13
2022-12-11T10:05:15.669Z,14
2022-12-11T10:06:15.682Z,13
2022-12-11T10:07:15.673Z,13
2022-12-11T10:08:15.741Z,14
2022-12-11T10:09:15.678Z,14
2022-12-11T10:10:15.670Z,13
2022-12-11T10:11:15.693Z,13
2022-12-11T10:12:15.659Z,14
2022-12-11T10:13:15.661Z,13
2022-12-11T10:14:15.659Z,13
2022-12-11T10:15:15.884Z,13
2022-12-11T10:16:15.729Z,14
2022-12-11T10:17:15.658Z,14
2022-12-11T10:18:15.652Z,13
2022-12-11T10:19:15.686Z,14
2022-12-11T10:20:15.666Z,14
2022-12-11T10:21:15.677Z,14
2022-12-11T10:22:15.680Z,14
2022-12-11T10:24:33.786Z,14
2022-12-11T10:25:15.672Z,13
2022-12-11T10:26:15.699Z,14
2022-12-11T10:27:15.673Z,14
2022-12-11T10:28:15.660Z,12
2022-12-11T10:29:15.665Z,15
2022-12-11T10:30:15.667Z,13
2022-12-11T10:31:15.735Z,14
2022-12-11T10:32:15.721Z,14
2022-12-11T10:33:15.659Z,14
2022-12-11T10:34:15.669Z,14
2022-12-11T10:35:15.665Z,15
2022-12-11T10:37:15.756Z,14
2022-12-11T10:38:15.685Z,14
2022-12-11T10:39:15.683Z,15
2022-12-11T10:40:15.773Z,15
2022-12-11T10:41:15.680Z,15
2022-12-11T10:42:15.680Z,14
2022-12-11T10:43:15.653Z,15
2022-12-11T10:44:15.656Z,15
2022-12-11T10:45:15.672Z,14
2022-12-11T10:46:15.762Z,15
2022-12-11T10:47:15.677Z,16
2022-12-11T10:48:15.678Z,16
2022-12-11T10:49:15.714Z,16
2022-12-11T10:50:15.690Z,14
2022-12-11T10:51:15.676Z,15
2022-12-11T10:52:15.676Z,5
2022-12-11T10:53:15.687Z,15
2022-12-11T10:54:15.681Z,14
2022-12-11T10:55:15.689Z,14
2022-12-11T10:56:15.680Z,15
2022-12-11T10:57:15.690Z,16
2022-12-11T10:58:15.664Z,15
2022-12-11T10:59:18.689Z,16
2022-12-11T11:00:15.755Z,14
2022-12-11T11:01:15.713Z,16
2022-12-11T11:02:15.678Z,15
2022-12-11T11:03:15.682Z,14
2022-12-11T11:04:15.685Z,15
2022-12-11T11:05:15.685Z,14
2022-12-11T11:06:15.676Z,15
2022-12-11T11:07:15.674Z,14
2022-12-11T11:08:15.762Z,13
2022-12-11T11:09:15.676Z,15
2022-12-11T11:10:15.771Z,15
2022-12-11T11:11:15.686Z,14
2022-12-11T11:12:15.696Z,14
2022-12-11T11:13:15.692Z,17
2022-12-11T11:14:15.679Z,16
2022-12-11T11:15:15.673Z,15
2022-12-11T11:16:15.810Z,14
2022-12-11T11:17:15.682Z,15
2022-12-11T11:18:15.694Z,14
2022-12-11T11:19:15.688Z,14
2022-12-11T11:20:15.758Z,14
2022-12-11T11:21:15.724Z,15
2022-12-11T11:22:15.682Z,16
2022-12-11T11:23:15.677Z,15
2022-12-11T11:24:15.679Z,15
2022-12-11T11:25:15.686Z,15
2022-12-11T11:26:15.748Z,15
2022-12-11T11:27:15.690Z,14
2022-12-11T11:28:15.729Z,15
2022-12-11T11:29:15.690Z,15
2022-12-11T11:30:15.701Z,15
2022-12-11T11:31:15.752Z,15
2022-12-11T11:32:15.666Z,15
2022-12-11T11:33:15.710Z,15
2022-12-11T11:34:15.692Z,15
2022-12-11T11:35:15.678Z,15
2022-12-11T11:36:15.681Z,16
2022-12-11T11:37:15.690Z,15
2022-12-11T11:38:15.685Z,15
2022-12-11T11:39:15.686Z,15
2022-12-11T11:40:15.675Z,15
2022-12-11T11:41:15.674Z,15
2022-12-11T11:42:15.676Z,15
2022-12-11T11:43:15.718Z,14
2022-12-11T11:44:15.680Z,14
2022-12-11T11:45:15.685Z,15
2022-12-11T11:46:15.747Z,15
2022-12-11T11:47:15.688Z,14
2022-12-11T11:48:15.688Z,14
2022-12-11T11:49:15.695Z,14
2022-12-11T11:50:15.692Z,13
2022-12-11T11:51:15.693Z,15
2022-12-11T11:52:15.687Z,14
2022-12-11T11:53:16.906Z,14
2022-12-11T11:54:15.679Z,13
2022-12-11T11:55:21.485Z,14
2022-12-11T11:56:15.692Z,13
2022-12-11T11:57:15.697Z,14
2022-12-11T11:58:15.698Z,13
2022-12-11T11:59:15.718Z,14
2022-12-11T12:00:15.700Z,13
2022-12-11T12:01:15.698Z,13
2022-12-11T12:02:15.699Z,14
2022-12-11T12:03:15.702Z,15
2022-12-11T12:04:15.705Z,12
2022-12-11T12:05:15.694Z,13
2022-12-11T12:06:15.700Z,13
2022-12-11T12:07:15.700Z,13
2022-12-11T12:08:15.706Z,12
2022-12-11T12:09:15.708Z,13
2022-12-11T12:10:15.759Z,14
2022-12-11T12:11:15.681Z,13
2022-12-11T12:12:19.500Z,13
2022-12-11T12:13:44.746Z,14
2022-12-11T12:14:43.640Z,12
2022-12-11T12:15:15.674Z,15
2022-12-11T12:17:15.753Z,13
2022-12-11T12:18:15.693Z,13
2022-12-11T12:19:15.678Z,12
2022-12-11T12:20:15.681Z,13
2022-12-11T12:21:15.698Z,14
2022-12-11T12:22:15.673Z,14
2022-12-11T12:23:15.681Z,11
2022-12-11T12:24:15.699Z,12
2022-12-11T12:25:15.677Z,12
2022-12-11T12:26:15.685Z,13
2022-12-11T12:27:50.018Z,13
2022-12-11T12:28:15.683Z,13
2022-12-11T12:29:15.694Z,14
2022-12-11T12:30:21.812Z,14
2022-12-11T12:31:15.733Z,15
2022-12-11T12:32:15.745Z,18
2022-12-11T12:33:15.701Z,16
2022-12-11T12:34:15.703Z,16
2022-12-11T12:35:15.701Z,15
2022-12-11T12:36:15.711Z,14
2022-12-11T12:37:15.772Z,13
2022-12-11T12:38:15.704Z,14
2022-12-11T12:39:15.698Z,14
2022-12-11T12:40:15.710Z,13
2022-12-11T12:41:15.704Z,12
2022-12-11T12:42:15.703Z,12
2022-12-11T12:43:15.698Z,12
2022-12-11T12:44:15.838Z,12
2022-12-11T12:45:15.699Z,13
2022-12-11T12:46:15.772Z,13
2022-12-11T12:47:15.699Z,13
2022-12-11T12:48:15.723Z,12
2022-12-11T12:49:15.705Z,13
2022-12-11T12:50:15.703Z,12
2022-12-11T12:51:15.708Z,12
2022-12-11T12:53:15.791Z,12
2022-12-11T12:54:15.788Z,13
2022-12-11T12:55:15.715Z,12
2022-12-11T12:56:15.713Z,12
2022-12-11T12:57:15.702Z,12
2022-12-11T12:58:15.710Z,12
2022-12-11T12:59:15.687Z,12
2022-12-11T13:00:15.702Z,13
2022-12-11T13:01:15.838Z,11
2022-12-11T13:02:15.782Z,12
2022-12-11T13:03:15.745Z,12
2022-12-11T13:04:39.368Z,14
2022-12-11T13:05:15.708Z,13
2022-12-11T13:06:15.699Z,13
2022-12-11T13:07:15.704Z,13
2022-12-11T13:08:15.736Z,12
2022-12-11T13:09:15.704Z,12
2022-12-11T13:10:15.700Z,12
2022-12-11T13:11:15.707Z,12
2022-12-11T13:12:15.710Z,12
2022-12-11T13:13:15.700Z,13
2022-12-11T13:14:15.705Z,12
2022-12-11T13:15:15.701Z,12
2022-12-11T13:16:15.733Z,13
2022-12-11T13:17:15.700Z,14
2022-12-11T13:18:15.682Z,13
2022-12-11T13:19:15.697Z,13
2022-12-11T13:20:15.687Z,13
2022-12-11T13:21:15.696Z,13
2022-12-11T13:22:15.691Z,14
2022-12-11T13:23:15.705Z,13
2022-12-11T13:24:15.698Z,13
2022-12-11T13:25:15.748Z,13
2022-12-11T13:26:15.714Z,13
2022-12-11T13:27:15.720Z,13
2022-12-11T13:29:15.694Z,13
2022-12-11T13:30:15.771Z,14
2022-12-11T13:31:15.799Z,13
2022-12-11T13:32:15.748Z,13
2022-12-11T13:33:15.711Z,11
2022-12-11T13:34:15.705Z,12
2022-12-11T13:35:15.721Z,11
2022-12-11T13:36:19.001Z,11
2022-12-11T13:37:15.724Z,12
2022-12-11T13:38:15.702Z,11
2022-12-11T13:39:15.718Z,11
2022-12-11T13:40:15.716Z,12
2022-12-11T13:41:15.708Z,11
2022-12-11T13:42:17.511Z,10
2022-12-11T13:43:15.702Z,12
2022-12-11T13:44:15.742Z,12
2022-12-11T13:45:15.715Z,13
2022-12-11T13:46:15.761Z,15
2022-12-11T13:47:15.753Z,21
2022-12-11T13:48:16.992Z,19
2022-12-11T13:49:15.709Z,16
2022-12-11T13:50:15.727Z,13
2022-12-11T13:51:15.719Z,12
2022-12-11T13:52:15.716Z,11
2022-12-11T13:53:15.708Z,10
2022-12-11T13:54:17.410Z,11
2022-12-11T13:55:15.710Z,12
2022-12-11T13:56:15.724Z,12
2022-12-11T13:57:15.725Z,12
2022-12-11T13:58:15.709Z,11
2022-12-11T13:59:15.719Z,12
2022-12-11T14:00:17.411Z,10
2022-12-11T14:01:15.830Z,12
2022-12-11T14:02:15.782Z,13
2022-12-11T14:03:15.723Z,13
2022-12-11T14:04:15.718Z,11
2022-12-11T14:05:15.711Z,10
2022-12-11T14:06:18.823Z,13
2022-12-11T14:07:15.708Z,14
2022-12-11T14:08:15.790Z,12
2022-12-11T14:09:15.754Z,14
2022-12-11T14:10:15.711Z,15
2022-12-11T14:11:15.720Z,13
2022-12-11T14:12:15.710Z,14
2022-12-11T14:13:15.716Z,12
2022-12-11T14:14:15.720Z,13
2022-12-11T14:15:15.719Z,12
2022-12-11T14:16:15.751Z,12
2022-12-11T14:17:15.715Z,11
2022-12-11T14:18:15.708Z,10
2022-12-11T14:19:15.713Z,11
2022-12-11T14:20:15.709Z,10
2022-12-11T14:21:15.706Z,10
2022-12-11T14:22:15.729Z,9
2022-12-11T14:23:15.729Z,11
2022-12-11T14:24:15.698Z,11
2022-12-11T14:25:15.715Z,10
2022-12-11T14:26:15.718Z,11
2022-12-11T14:27:15.712Z,10
2022-12-11T14:28:15.723Z,11
2022-12-11T14:29:15.721Z,11
2022-12-11T14:30:15.721Z,11
2022-12-11T14:31:15.791Z,11
2022-12-11T14:32:15.739Z,11
2022-12-11T14:33:15.717Z,11
2022-12-11T14:34:15.754Z,11